createdAt,value
2018-12-26T00:00:25.213Z,1.60
2018-12-26T00:02:53.083Z,1.60
2018-12-26T00:05:20.668Z,1.60
2018-12-26T00:07:48.425Z,1.60
2018-12-26T00:10:16.231Z,1.60
2018-12-26T00:12:44.037Z,1.70
2018-12-26T00:15:12.319Z,1.60
2018-12-26T00:17:40.305Z,1.50
2018-12-26T00:20:07.980Z,1.60
2018-12-26T00:22:35.646Z,1.60
2018-12-26T00:25:06.547Z,1.60
2018-12-26T00:27:34.200Z,1.50
2018-12-26T00:30:02.116Z,1.50
2018-12-26T00:32:30.123Z,1.30
2018-12-26T00:35:04.184Z,1.40
2018-12-26T00:37:33.882Z,1.40
2018-12-26T00:40:01.613Z,1.40
2018-12-26T00:42:29.116Z,1.30
2018-12-26T00:44:56.855Z,1.20
2018-12-26T00:47:25.718Z,1.20
2018-12-26T00:49:54.535Z,1.20
2018-12-26T00:52:24.581Z,1.20
2018-12-26T00:54:52.250Z,1.20
2018-12-26T00:57:29.161Z,1.20
2018-12-26T00:59:59.992Z,1.20
2018-12-26T01:02:33.223Z,1.10
2018-12-26T01:05:04.598Z,1.10
2018-12-26T01:07:32.326Z,1.00
2018-12-26T01:10:04.267Z,1.00
2018-12-26T01:12:33.832Z,0.90
2018-12-26T01:15:03.027Z,0.80
2018-12-26T01:17:30.907Z,0.90
2018-12-26T01:19:58.502Z,0.80
2018-12-26T01:22:26.167Z,0.70
2018-12-26T01:24:54.125Z,0.70
2018-12-26T01:27:21.775Z,0.70
2018-12-26T01:29:50.630Z,0.70
2018-12-26T01:32:25.006Z,0.80
2018-12-26T01:34:53.910Z,0.60
2018-12-26T01:37:24.210Z,0.60
2018-12-26T01:39:51.907Z,0.50
2018-12-26T01:42:20.493Z,0.50
2018-12-26T01:44:49.379Z,0.40
2018-12-26T01:47:17.391Z,0.40
2018-12-26T01:49:46.212Z,0.40
2018-12-26T01:52:15.179Z,0.30
2018-12-26T01:54:42.793Z,0.30
2018-12-26T01:57:10.418Z,0.20
2018-12-26T01:59:40.780Z,0.20
2018-12-26T02:02:08.681Z,0.00
2018-12-26T02:04:36.374Z,0.00
2018-12-26T02:07:05.719Z,0.00
2018-12-26T02:09:33.366Z,0.00
2018-12-26T02:12:01.203Z,0.00
2018-12-26T02:14:28.846Z,0.00
2018-12-26T02:16:56.812Z,0.00
2018-12-26T02:19:24.668Z,0.00
2018-12-26T02:21:52.286Z,0.00
2018-12-26T02:24:20.245Z,-0.10
2018-12-26T02:26:48.111Z,-0.10
2018-12-26T02:29:15.987Z,-0.10
2018-12-26T02:31:43.842Z,-0.20
2018-12-26T02:34:11.504Z,-0.20
2018-12-26T02:36:47.269Z,-0.20
2018-12-26T02:39:17.497Z,-0.20
2018-12-26T02:41:45.459Z,-0.20
2018-12-26T02:44:13.178Z,-0.30
2018-12-26T02:46:40.861Z,-0.30
2018-12-26T02:49:08.453Z,-0.20
2018-12-26T02:51:36.420Z,-0.30
2018-12-26T02:54:04.227Z,-0.30
2018-12-26T02:56:47.763Z,-0.30
2018-12-26T02:59:11.971Z,-0.30
2018-12-26T03:01:39.684Z,-0.30
2018-12-26T03:04:07.345Z,-0.30
2018-12-26T03:06:35.162Z,-0.40
2018-12-26T03:09:04.751Z,-0.40
2018-12-26T03:11:32.366Z,-0.40
2018-12-26T03:14:03.396Z,-0.40
2018-12-26T03:16:31.038Z,-0.40
2018-12-26T03:18:58.691Z,-0.40
2018-12-26T03:21:26.476Z,-0.40
2018-12-26T03:23:55.132Z,-0.40
2018-12-26T03:26:22.749Z,-0.50
2018-12-26T03:28:50.413Z,-0.50
2018-12-26T03:31:18.008Z,-0.50
2018-12-26T03:33:45.794Z,-0.50
2018-12-26T03:36:14.765Z,-0.50
2018-12-26T03:38:42.398Z,-0.50
2018-12-26T03:41:10.014Z,-0.50
2018-12-26T03:43:37.961Z,-0.50
2018-12-26T03:46:06.984Z,-0.50
2018-12-26T03:48:35.634Z,-0.60
2018-12-26T03:51:03.530Z,-0.50
2018-12-26T03:53:31.135Z,-0.50
2018-12-26T03:55:58.768Z,-0.60
2018-12-26T03:58:26.797Z,-0.60
2018-12-26T04:00:54.379Z,-0.60
2018-12-26T04:03:22.148Z,-0.60
2018-12-26T04:05:51.933Z,-0.60
2018-12-26T04:08:19.846Z,-0.70
2018-12-26T04:10:47.876Z,-0.70
2018-12-26T04:13:15.932Z,-0.70
2018-12-26T04:15:44.951Z,-0.70
2018-12-26T04:18:12.644Z,-0.80
2018-12-26T04:20:41.410Z,-0.80
2018-12-26T04:23:09.088Z,-0.80
2018-12-26T04:25:41.546Z,-0.80
2018-12-26T04:28:09.193Z,-0.90
2018-12-26T04:30:36.888Z,-0.90
2018-12-26T04:33:04.661Z,-1.00
2018-12-26T04:35:32.574Z,-1.10
2018-12-26T04:38:00.254Z,-1.10
2018-12-26T04:40:27.845Z,-1.20
2018-12-26T04:42:55.673Z,-1.20
2018-12-26T04:45:23.314Z,-1.20
2018-12-26T04:47:50.945Z,-1.30
2018-12-26T04:50:24.571Z,-1.30
2018-12-26T04:52:54.639Z,-1.40
2018-12-26T04:55:22.320Z,-1.60
2018-12-26T04:57:51.840Z,-1.60
2018-12-26T05:00:19.372Z,-1.70
2018-12-26T05:02:46.987Z,-1.80
2018-12-26T05:05:14.832Z,-1.80
2018-12-26T05:07:42.396Z,-1.80
2018-12-26T05:10:16.397Z,-1.90
2018-12-26T05:12:45.499Z,-1.90
2018-12-26T05:15:15.452Z,-1.70
2018-12-26T05:17:43.197Z,-1.90
2018-12-26T05:20:11.092Z,-1.70
2018-12-26T05:22:43.967Z,-1.80
2018-12-26T05:25:11.768Z,-1.70
2018-12-26T05:27:39.676Z,-1.60
2018-12-26T05:30:08.697Z,-1.70
2018-12-26T05:32:36.286Z,-1.70
2018-12-26T05:35:04.126Z,-1.70
2018-12-26T05:37:31.688Z,-1.70
2018-12-26T05:40:00.438Z,-1.70
2018-12-26T05:42:28.224Z,-1.70
2018-12-26T05:44:55.884Z,-1.60
2018-12-26T05:47:23.577Z,-1.70
2018-12-26T05:49:52.287Z,-1.50
2018-12-26T05:52:19.954Z,-1.40
2018-12-26T05:54:47.641Z,-1.60
2018-12-26T05:57:16.834Z,-1.40
2018-12-26T05:59:44.424Z,-1.30
2018-12-26T06:02:12.017Z,-1.30
2018-12-26T06:04:39.653Z,-1.40
2018-12-26T06:07:07.362Z,-1.40
2018-12-26T06:09:36.921Z,-1.30
2018-12-26T06:12:04.539Z,-1.40
2018-12-26T06:14:32.246Z,-1.50
2018-12-26T06:16:59.823Z,-1.40
2018-12-26T06:19:27.460Z,-1.60
2018-12-26T06:21:55.097Z,-1.50
2018-12-26T06:24:22.716Z,-1.40
2018-12-26T06:26:50.761Z,-1.50
2018-12-26T06:29:18.353Z,-1.40
2018-12-26T06:31:46.006Z,-1.30
2018-12-26T06:34:13.991Z,-1.40
2018-12-26T06:36:41.512Z,-1.30
2018-12-26T06:39:09.191Z,-1.30
2018-12-26T06:41:37.218Z,-1.40
2018-12-26T06:44:04.803Z,-1.30
2018-12-26T06:46:32.369Z,-1.60
2018-12-26T06:49:00.484Z,-1.30
2018-12-26T06:51:28.149Z,-1.20
2018-12-26T06:53:55.756Z,-1.10
2018-12-26T06:56:23.672Z,-1.30
2018-12-26T06:58:51.292Z,-1.20
2018-12-26T07:01:18.972Z,-1.20
2018-12-26T07:03:46.815Z,-1.20
2018-12-26T07:06:14.435Z,-1.20
2018-12-26T07:08:42.083Z,-1.20
2018-12-26T07:11:09.881Z,-1.40
2018-12-26T07:13:37.613Z,-1.30
2018-12-26T07:16:05.225Z,-1.20
2018-12-26T07:18:36.404Z,-1.30
2018-12-26T07:21:04.012Z,-1.30
2018-12-26T07:23:31.709Z,-1.20
2018-12-26T07:25:59.765Z,-1.30
2018-12-26T07:28:27.610Z,-1.20
2018-12-26T07:30:56.601Z,-1.10
2018-12-26T07:33:24.427Z,-1.10
2018-12-26T07:35:52.031Z,-1.20
2018-12-26T07:38:19.629Z,-1.10
2018-12-26T07:40:50.843Z,-1.10
2018-12-26T07:43:18.432Z,-0.90
2018-12-26T07:45:46.053Z,-0.90
2018-12-26T07:48:14.101Z,-0.90
2018-12-26T07:50:41.945Z,-0.90
2018-12-26T07:53:13.657Z,-0.90
2018-12-26T07:55:41.576Z,-0.80
2018-12-26T07:58:17.428Z,-0.70
2018-12-26T08:00:38.686Z,-0.70
2018-12-26T08:03:07.662Z,-0.90
2018-12-26T08:05:35.433Z,-0.70
2018-12-26T08:08:02.976Z,-0.60
2018-12-26T08:10:32.813Z,-0.40
2018-12-26T08:13:00.425Z,-0.40
2018-12-26T08:15:28.149Z,-0.40
2018-12-26T08:17:55.982Z,-0.40
2018-12-26T08:20:24.581Z,-0.40
2018-12-26T08:22:52.255Z,-0.40
2018-12-26T08:25:20.287Z,-0.40
2018-12-26T08:27:47.965Z,-0.40
2018-12-26T08:30:15.630Z,-0.40
2018-12-26T08:32:43.813Z,-0.30
2018-12-26T08:35:26.460Z,-0.40
2018-12-26T08:38:00.764Z,-0.40
2018-12-26T08:40:28.381Z,-0.40
2018-12-26T08:42:55.877Z,-0.40
2018-12-26T08:45:23.606Z,-0.20
2018-12-26T08:47:51.288Z,-0.30
2018-12-26T08:50:18.949Z,-0.40
2018-12-26T08:52:46.675Z,-0.30
2018-12-26T08:55:14.271Z,-0.30
2018-12-26T08:57:41.915Z,-0.20
2018-12-26T09:00:09.921Z,-0.30
2018-12-26T09:02:37.663Z,-0.30
2018-12-26T09:05:08.258Z,-0.40
2018-12-26T09:07:36.597Z,-0.60
2018-12-26T09:10:04.582Z,-0.60
2018-12-26T09:12:32.521Z,-0.40
2018-12-26T09:15:00.656Z,-0.20
2018-12-26T09:17:28.732Z,-0.10
2018-12-26T09:19:57.496Z,-0.10
2018-12-26T09:22:28.116Z,-0.40
2018-12-26T09:24:58.360Z,-0.20
2018-12-26T09:27:25.994Z,-0.20
2018-12-26T09:29:54.961Z,-0.30
2018-12-26T09:32:24.180Z,0.00
2018-12-26T09:34:54.292Z,-0.10
2018-12-26T09:37:23.545Z,-0.10
2018-12-26T09:39:51.217Z,-0.20
2018-12-26T09:42:21.375Z,-0.20
2018-12-26T09:44:54.307Z,-0.20
2018-12-26T09:47:20.333Z,-0.10
2018-12-26T09:49:54.184Z,0.00
2018-12-26T09:52:24.124Z,0.10
2018-12-26T09:54:51.685Z,0.00
2018-12-26T09:57:19.812Z,-0.10
2018-12-26T09:59:48.457Z,0.30
2018-12-26T10:02:19.101Z,0.70
2018-12-26T10:04:48.483Z,0.60
2018-12-26T10:07:16.092Z,0.50
2018-12-26T10:09:43.931Z,0.50
2018-12-26T10:12:11.649Z,0.70
2018-12-26T10:14:39.584Z,0.60
2018-12-26T10:17:07.266Z,0.40
2018-12-26T10:19:37.499Z,0.40
2018-12-26T10:22:06.776Z,0.30
2018-12-26T10:24:34.628Z,0.50
2018-12-26T10:27:06.199Z,0.40
2018-12-26T10:29:33.745Z,0.50
2018-12-26T10:32:01.334Z,0.80
2018-12-26T10:34:29.061Z,0.60
2018-12-26T10:36:56.861Z,0.90
2018-12-26T10:39:24.353Z,0.90
2018-12-26T10:41:52.061Z,1.00
2018-12-26T10:44:23.885Z,1.00
2018-12-26T10:46:51.566Z,0.80
2018-12-26T10:49:19.225Z,1.10
2018-12-26T10:51:46.849Z,1.10
2018-12-26T10:54:14.441Z,1.20
2018-12-26T10:56:48.987Z,0.90
2018-12-26T10:59:16.565Z,0.90
2018-12-26T11:01:45.704Z,1.10
2018-12-26T11:04:13.668Z,1.20
2018-12-26T11:06:47.369Z,1.10
2018-12-26T11:09:15.046Z,0.80
2018-12-26T11:12:30.592Z,0.90
2018-12-26T11:14:52.808Z,1.00
2018-12-26T11:17:20.534Z,0.70
2018-12-26T11:19:48.151Z,1.10
2018-12-26T11:22:23.449Z,1.00
2018-12-26T11:24:51.233Z,1.10
2018-12-26T11:27:18.793Z,1.30
2018-12-26T11:29:46.449Z,1.20
2018-12-26T11:32:18.803Z,1.20
2018-12-26T11:34:46.421Z,1.00
2018-12-26T11:37:14.009Z,1.20
2018-12-26T11:39:42.751Z,1.20
2018-12-26T11:42:10.295Z,1.30
2018-12-26T11:44:40.494Z,0.80
2018-12-26T11:47:13.874Z,1.30
2018-12-26T11:49:41.868Z,1.10
2018-12-26T11:52:15.368Z,1.30
2018-12-26T11:54:49.455Z,1.40
2018-12-26T11:57:17.266Z,1.20
2018-12-26T11:59:51.498Z,1.40
2018-12-26T12:02:22.009Z,1.40
2018-12-26T12:04:49.619Z,1.00
2018-12-26T12:07:17.457Z,1.30
2018-12-26T12:09:47.981Z,1.50
2018-12-26T12:12:18.663Z,1.30
2018-12-26T12:14:48.678Z,1.40
2018-12-26T12:17:16.390Z,1.00
2018-12-26T12:19:45.165Z,1.20
2018-12-26T12:22:14.439Z,1.30
2018-12-26T12:24:43.743Z,1.20
2018-12-26T12:27:11.387Z,1.10
2018-12-26T12:29:39.113Z,1.20
2018-12-26T12:32:11.149Z,1.30
2018-12-26T12:34:38.760Z,1.30
2018-12-26T12:37:09.523Z,1.30
2018-12-26T12:39:37.107Z,1.10
2018-12-26T12:42:04.801Z,1.20
2018-12-26T12:44:32.579Z,1.10
2018-12-26T12:47:00.282Z,1.00
2018-12-26T12:49:28.031Z,1.00
2018-12-26T12:51:56.308Z,1.00
2018-12-26T12:54:24.051Z,1.10
2018-12-26T12:56:51.656Z,1.30
2018-12-26T12:59:19.255Z,1.30
2018-12-26T13:01:47.000Z,1.00
2018-12-26T13:04:14.603Z,1.00
2018-12-26T13:06:42.567Z,1.00
2018-12-26T13:09:12.249Z,0.90
2018-12-26T13:11:39.780Z,1.10
2018-12-26T13:14:07.429Z,1.00
2018-12-26T13:16:35.052Z,1.10
2018-12-26T13:19:07.146Z,1.10
2018-12-26T13:21:35.049Z,1.20
2018-12-26T13:24:02.798Z,1.00
2018-12-26T13:26:30.622Z,1.20
2018-12-26T13:29:03.157Z,1.20
2018-12-26T13:31:33.326Z,1.10
2018-12-26T13:34:01.009Z,1.20
2018-12-26T13:36:28.707Z,1.30
2018-12-26T13:38:58.333Z,1.10
2018-12-26T13:41:28.741Z,1.30
2018-12-26T13:43:56.673Z,1.30
2018-12-26T13:46:24.499Z,1.30
2018-12-26T13:48:52.411Z,1.30
2018-12-26T13:51:20.312Z,1.40
2018-12-26T13:53:48.071Z,1.40
2018-12-26T13:56:15.630Z,1.20
2018-12-26T13:58:49.883Z,1.20
2018-12-26T14:01:17.729Z,1.40
2018-12-26T14:03:45.403Z,1.40
2018-12-26T14:06:16.118Z,1.30
2018-12-26T14:08:46.189Z,1.40
2018-12-26T14:11:13.826Z,1.40
2018-12-26T14:13:42.207Z,1.30
2018-12-26T14:16:09.799Z,1.40
2018-12-26T14:18:40.154Z,1.30
2018-12-26T14:21:09.703Z,1.50
2018-12-26T14:23:37.272Z,1.50
2018-12-26T14:26:11.026Z,1.50
2018-12-26T14:28:50.479Z,1.60
2018-12-26T14:31:21.260Z,1.60
2018-12-26T14:33:54.177Z,1.60
2018-12-26T14:36:26.220Z,1.40
2018-12-26T14:38:59.693Z,1.40
2018-12-26T14:41:27.285Z,1.30
2018-12-26T14:43:55.289Z,1.20
2018-12-26T14:46:23.207Z,1.20
2018-12-26T14:48:53.534Z,1.10
2018-12-26T14:51:26.405Z,1.10
2018-12-26T14:53:50.600Z,1.10
2018-12-26T14:56:18.244Z,1.10
2018-12-26T14:58:45.848Z,1.10
2018-12-26T15:01:13.561Z,1.10
2018-12-26T15:03:44.150Z,1.20
2018-12-26T15:06:15.460Z,1.10
2018-12-26T15:08:43.728Z,0.80
2018-12-26T15:11:11.698Z,0.80
2018-12-26T15:13:39.280Z,0.90
2018-12-26T15:16:12.237Z,0.90
2018-12-26T15:18:40.083Z,1.00
2018-12-26T15:21:07.897Z,1.00
2018-12-26T15:23:37.410Z,1.00
2018-12-26T15:26:09.974Z,1.10
2018-12-26T15:28:37.541Z,1.10
2018-12-26T15:31:05.294Z,1.00
2018-12-26T15:33:32.867Z,1.00
2018-12-26T15:36:02.325Z,1.10
2018-12-26T15:38:30.038Z,1.00
2018-12-26T15:40:58.852Z,0.90
2018-12-26T15:43:26.546Z,0.90
2018-12-26T15:45:54.259Z,1.00
2018-12-26T15:48:24.126Z,0.90
2018-12-26T15:50:51.787Z,0.90
2018-12-26T15:53:19.518Z,1.00
2018-12-26T15:55:47.211Z,0.80
2018-12-26T15:58:15.028Z,0.70
2018-12-26T16:00:42.698Z,0.80
2018-12-26T16:03:10.393Z,0.90
2018-12-26T16:05:38.189Z,0.70
2018-12-26T16:08:05.937Z,0.50
2018-12-26T16:10:33.512Z,0.60
2018-12-26T16:13:03.361Z,0.80
2018-12-26T16:15:31.252Z,0.70
2018-12-26T16:18:01.102Z,0.90
2018-12-26T16:20:28.724Z,0.90
2018-12-26T16:22:56.408Z,0.90
2018-12-26T16:25:24.848Z,0.70
2018-12-26T16:27:52.425Z,0.80
2018-12-26T16:30:22.165Z,0.80
2018-12-26T16:32:49.848Z,0.70
2018-12-26T16:36:35.653Z,0.80
2018-12-26T16:39:04.857Z,0.80
2018-12-26T16:41:32.468Z,0.80
2018-12-26T16:44:01.133Z,0.90
2018-12-26T16:46:28.746Z,0.90
2018-12-26T16:48:58.220Z,0.90
2018-12-26T16:51:25.937Z,0.90
2018-12-26T16:53:53.508Z,0.90
2018-12-26T16:56:21.306Z,0.70
2018-12-26T16:58:49.179Z,0.80
2018-12-26T17:01:18.706Z,0.70
2018-12-26T17:03:46.865Z,0.70
2018-12-26T17:06:17.458Z,0.80
2018-12-26T17:08:45.357Z,0.70
2018-12-26T17:11:13.069Z,0.60
2018-12-26T17:13:40.818Z,0.70
2018-12-26T17:16:08.715Z,0.60
2018-12-26T17:18:36.503Z,0.70
2018-12-26T17:21:04.088Z,0.70
2018-12-26T17:23:34.273Z,0.70
2018-12-26T17:26:02.383Z,0.70
2018-12-26T17:28:47.261Z,0.60
2018-12-26T17:31:15.306Z,0.70
2018-12-26T17:33:43.036Z,0.60
2018-12-26T17:36:10.641Z,0.70
2018-12-26T17:38:38.242Z,0.60
2018-12-26T17:41:08.334Z,0.70
2018-12-26T17:43:38.863Z,0.60
2018-12-26T17:46:07.683Z,0.70
2018-12-26T17:48:37.554Z,0.80
2018-12-26T17:51:17.459Z,0.70
2018-12-26T17:54:13.427Z,0.70
2018-12-26T17:57:00.240Z,0.70
2018-12-26T18:00:14.502Z,0.60
2018-12-26T18:02:45.041Z,0.70
2018-12-26T18:05:12.828Z,0.80
2018-12-26T18:07:40.586Z,0.90
2018-12-26T18:10:14.836Z,0.90
2018-12-26T18:12:42.542Z,0.90
2018-12-26T18:15:10.909Z,0.80
2018-12-26T18:17:39.086Z,0.90
2018-12-26T18:20:11.612Z,0.70
2018-12-26T18:22:39.262Z,0.80
2018-12-26T18:25:07.151Z,0.80
2018-12-26T18:27:44.391Z,0.70
2018-12-26T18:30:16.045Z,0.80
2018-12-26T18:33:14.296Z,0.80
2018-12-26T18:35:47.770Z,0.80
2018-12-26T18:38:15.467Z,0.70
2018-12-26T18:40:45.208Z,0.70
2018-12-26T18:43:15.771Z,0.80
2018-12-26T18:45:43.529Z,0.90
2018-12-26T18:48:22.645Z,0.80
2018-12-26T18:50:50.387Z,0.80
2018-12-26T18:53:17.996Z,0.80
2018-12-26T18:55:48.454Z,0.80
2018-12-26T18:58:17.915Z,0.70
2018-12-26T19:00:47.531Z,0.60
2018-12-26T19:03:19.554Z,0.70
2018-12-26T19:05:47.399Z,0.70
2018-12-26T19:08:20.929Z,0.80
2018-12-26T19:10:49.248Z,0.90
2018-12-26T19:13:19.257Z,0.80
2018-12-26T19:15:50.072Z,0.90
2018-12-26T19:18:22.078Z,0.80
2018-12-26T19:20:51.741Z,0.90
2018-12-26T19:23:22.308Z,0.90
2018-12-26T19:25:50.902Z,0.90
2018-12-26T19:28:19.711Z,1.00
2018-12-26T19:30:47.555Z,1.00
2018-12-26T19:33:24.392Z,0.80
2018-12-26T19:35:53.774Z,0.90
2018-12-26T19:38:21.513Z,0.90
2018-12-26T19:40:49.116Z,1.00
2018-12-26T19:43:16.854Z,0.90
2018-12-26T19:45:44.509Z,0.80
2018-12-26T19:48:14.443Z,0.90
2018-12-26T19:50:48.432Z,1.00
2018-12-26T19:53:41.680Z,1.10
2018-12-26T19:56:10.977Z,1.10
2018-12-26T19:58:43.879Z,1.20
2018-12-26T20:01:11.765Z,1.10
2018-12-26T20:03:46.386Z,1.20
2018-12-26T20:06:15.372Z,1.10
2018-12-26T20:08:44.321Z,1.10
2018-12-26T20:11:14.826Z,1.10
2018-12-26T20:13:42.461Z,1.10
2018-12-26T20:16:10.099Z,1.20
2018-12-26T20:18:38.208Z,1.10
2018-12-26T20:21:05.880Z,1.00
2018-12-26T20:23:33.801Z,1.00
2018-12-26T20:26:03.432Z,1.00
2018-12-26T20:28:32.816Z,1.00
2018-12-26T20:31:05.365Z,1.00
2018-12-26T20:33:33.444Z,1.10
2018-12-26T20:36:03.925Z,1.10
2018-12-26T20:38:34.758Z,1.10
2018-12-26T20:41:02.661Z,1.10
2018-12-26T20:43:30.451Z,1.00
2018-12-26T20:46:02.189Z,1.00
2018-12-26T20:48:29.809Z,0.90
2018-12-26T20:51:05.507Z,1.10
2018-12-26T20:53:33.226Z,1.00
2018-12-26T20:56:01.064Z,1.10
2018-12-26T20:58:28.944Z,1.10
2018-12-26T21:00:59.873Z,1.00
2018-12-26T21:03:28.024Z,1.00
2018-12-26T21:06:04.697Z,1.00
2018-12-26T21:08:32.592Z,1.10
2018-12-26T21:11:02.959Z,1.20
2018-12-26T21:13:32.691Z,1.00
2018-12-26T21:16:03.038Z,1.00
2018-12-26T21:18:31.057Z,1.10
2018-12-26T21:20:58.780Z,1.00
2018-12-26T21:23:31.533Z,1.10
2018-12-26T21:26:01.174Z,1.10
2018-12-26T21:28:29.246Z,1.10
2018-12-26T21:30:56.804Z,1.20
2018-12-26T21:33:28.943Z,1.20
2018-12-26T21:35:58.226Z,1.20
2018-12-26T21:38:26.568Z,1.10
2018-12-26T21:40:54.206Z,1.10
2018-12-26T21:43:25.640Z,1.10
2018-12-26T21:45:53.400Z,1.20
2018-12-26T21:48:20.981Z,1.10
2018-12-26T21:50:48.746Z,1.00
2018-12-26T21:53:16.362Z,1.00
2018-12-26T21:55:48.764Z,1.10
2018-12-26T21:58:19.392Z,1.10
2018-12-26T22:00:48.918Z,1.10
2018-12-26T22:03:16.530Z,1.20
2018-12-26T22:05:47.819Z,1.30
2018-12-26T22:08:21.536Z,1.30
2018-12-26T22:10:49.109Z,1.20
2018-12-26T22:13:18.989Z,1.00
2018-12-26T22:15:47.597Z,1.20
2018-12-26T22:18:17.103Z,1.00
2018-12-26T22:20:44.992Z,1.20
2018-12-26T22:23:13.770Z,1.20
2018-12-26T22:25:41.328Z,1.20
2018-12-26T22:28:09.205Z,1.10
2018-12-26T22:30:42.139Z,1.20
2018-12-26T22:33:09.743Z,1.20
2018-12-26T22:35:37.648Z,1.20
2018-12-26T22:38:05.551Z,1.10
2018-12-26T22:40:33.354Z,1.10
2018-12-26T22:43:01.279Z,1.10
2018-12-26T22:45:29.976Z,1.30
2018-12-26T22:48:01.189Z,1.20
2018-12-26T22:50:30.628Z,1.20
2018-12-26T22:53:03.113Z,1.20
2018-12-26T22:55:30.692Z,1.20
2018-12-26T22:57:58.716Z,1.30
2018-12-26T23:00:43.541Z,1.20
2018-12-26T23:03:11.382Z,1.30
2018-12-26T23:05:40.753Z,1.30
2018-12-26T23:08:08.322Z,1.20
2018-12-26T23:10:36.067Z,1.30
2018-12-26T23:13:03.655Z,1.20
2018-12-26T23:15:31.246Z,1.20
2018-12-26T23:18:01.459Z,1.20
2018-12-26T23:20:29.329Z,1.30
2018-12-26T23:22:56.962Z,1.20
2018-12-26T23:25:24.666Z,1.30
2018-12-26T23:27:52.672Z,1.40
2018-12-26T23:30:20.258Z,1.40
2018-12-26T23:32:51.129Z,1.20
2018-12-26T23:35:18.763Z,1.30
2018-12-26T23:37:46.622Z,1.40
2018-12-26T23:40:14.591Z,1.40
2018-12-26T23:42:46.274Z,1.40
2018-12-26T23:45:14.950Z,1.30
2018-12-26T23:47:43.031Z,1.40
2018-12-26T23:50:10.648Z,1.40
2018-12-26T23:52:38.443Z,1.50
2018-12-26T23:55:08.011Z,1.50
2018-12-26T23:57:40.101Z,1.40
